Observation data for Amherst on 06/25/2019      Previous  Date  Next       Current Mesonet Observations  Soil Data  Daily Summary Page  Observations in Plain Language
KAMH 250500Z 14013G18KT 22/19 A30 RMK A01 T02210185  RH  084%=      5-min Rain = 0
KAMH 250505Z 14015G20KT 22/19 A30 RMK A01 T02220185  RH  084%=      5-min Rain = 0
KAMH 250510Z 13014G19KT 22/19 A30 RMK A01 T02220186  RH  084%=      5-min Rain = 0
KAMH 250515Z 13013G18KT 22/19 A30 RMK A01 T02210185  RH  084%=      5-min Rain = 0
KAMH 250520Z 13013KT 22/19 A30 RMK A01 T02210185  RH  084%=      5-min Rain = 0
KAMH 250525Z 13014KT 22/18 A30 RMK A01 T02200184  RH  084%=      5-min Rain = 0
KAMH 250530Z 14014G19KT 22/18 A30 RMK A01 T02200183  RH  084%=      5-min Rain = 0
KAMH 250535Z 13013KT 22/18 A30 RMK A01 T02190183  RH  084%=      5-min Rain = 0
KAMH 250540Z 14013KT 22/18 A2999 RMK A01 T02180182  RH  084%=      5-min Rain = 0
KAMH 250545Z 14012KT 22/18 A2999 RMK A01 T02170181  RH  085%=      5-min Rain = 0
KAMH 250550Z 14012KT 22/18 A2999 RMK A01 T02160181  RH  084%=      5-min Rain = 0
KAMH 250555Z 14012KT 22/18 A2999 RMK A01 T02160179  RH  084%=      5-min Rain = 0
KAMH 250600Z 15012G18KT 22/18 A2999 RMK A01 T02170178  RH  082%=      5-min Rain = 0
KAMH 250605Z 15014KT 22/18 A2998 RMK A01 T02180176  RH  081%=      5-min Rain = 0
KAMH 250610Z 15013G18KT 22/18 A2998 RMK A01 T02160175  RH  081%=      5-min Rain = 0
KAMH 250615Z 15014G19KT 22/18 A2998 RMK A01 T02150175  RH  082%=      5-min Rain = 0
KAMH 250620Z 16014G19KT 22/18 A2998 RMK A01 T02150175  RH  082%=      5-min Rain = 0
KAMH 250625Z 16013KT 21/18 A2998 RMK A01 T02140175  RH  082%=      5-min Rain = 0
KAMH 250630Z 16012KT 21/17 A2998 RMK A01 T02120174  RH  083%=      5-min Rain = 0
KAMH 250635Z 16011KT 21/17 A2998 RMK A01 T02090174  RH  084%=      5-min Rain = 0
KAMH 250640Z 15010KT 21/17 A2998 RMK A01 T02070174  RH  085%=      5-min Rain = 0
KAMH 250645Z 16010KT 21/17 A2998 RMK A01 T02050173  RH  086%=      5-min Rain = 0
KAMH 250650Z 16010KT 21/17 A2998 RMK A01 T02050174  RH  087%=      5-min Rain = 0
KAMH 250655Z 16010KT 20/17 A2998 RMK A01 T02040174  RH  087%=      5-min Rain = 0
KAMH 250700Z 17011KT 20/17 A2999 RMK A01 T02030174  RH  088%=      5-min Rain = 0
KAMH 250705Z 17011KT 20/17 A2998 RMK A01 T02030172  RH  087%=      5-min Rain = 0
KAMH 250710Z 17011KT 20/17 A2998 RMK A01 T02030170  RH  085%=      5-min Rain = 0
KAMH 250715Z 17009KT 20/17 A2998 RMK A01 T02020167  RH  084%=      5-min Rain = 0
KAMH 250720Z 18009KT 20/17 A2998 RMK A01 T02000165  RH  084%=      5-min Rain = 0
KAMH 250725Z 18010KT 20/16 A2998 RMK A01 T01980161  RH  083%=      5-min Rain = 0
KAMH 250730Z 18011KT 20/15 A2998 RMK A01 T01980154  RH  079%=      5-min Rain = 0
KAMH 250735Z 18012KT 20/15 A2998 RMK A01 T01980148  RH  076%=      5-min Rain = 0
KAMH 250740Z 18012KT 20/14 A2998 RMK A01 T01990139  RH  072%=      5-min Rain = 0
KAMH 250745Z 18012KT 20/13 A2998 RMK A01 T01980131  RH  068%=      5-min Rain = 0
KAMH 250750Z 18012KT 20/13 A2998 RMK A01 T01970125  RH  066%=      5-min Rain = 0
KAMH 250755Z 18012G17KT 20/12 A2998 RMK A01 T01970121  RH  064%=      5-min Rain = 0
KAMH 250800Z 18012KT 20/12 A2998 RMK A01 T01960119  RH  063%=      5-min Rain = 0
KAMH 250805Z 18011KT 20/12 A2998 RMK A01 T01950119  RH  064%=      5-min Rain = 0
KAMH 250810Z 17011KT 19/12 A2998 RMK A01 T01920119  RH  065%=      5-min Rain = 0
KAMH 250815Z 17010KT 19/12 A2998 RMK A01 T01890120  RH  066%=      5-min Rain = 0
KAMH 250820Z 17009KT 19/12 A2998 RMK A01 T01860120  RH  068%=      5-min Rain = 0
KAMH 250825Z 17008KT 18/12 A2998 RMK A01 T01830120  RH  069%=      5-min Rain = 0
KAMH 250830Z 17008KT 18/12 A2998 RMK A01 T01820120  RH  070%=      5-min Rain = 0
KAMH 250835Z 18007KT 18/12 A2998 RMK A01 T01800120  RH  071%=      5-min Rain = 0
KAMH 250840Z 17007KT 18/12 A2998 RMK A01 T01770121  RH  072%=      5-min Rain = 0
KAMH 250845Z 18006KT 18/12 A2998 RMK A01 T01760121  RH  073%=      5-min Rain = 0
KAMH 250850Z 18007KT 18/12 A2998 RMK A01 T01760122  RH  073%=      5-min Rain = 0
KAMH 250855Z 18006KT 18/12 A2998 RMK A01 T01750122  RH  074%=      5-min Rain = 0
KAMH 250900Z 18005KT 17/12 A2998 RMK A01 T01710122  RH  076%=      5-min Rain = 0
KAMH 250905Z 18005KT 17/12 A2998 RMK A01 T01700122  RH  076%=      5-min Rain = 0
KAMH 250910Z 18004KT 17/12 A2998 RMK A01 T01680122  RH  078%=      5-min Rain = 0
KAMH 250915Z 19005KT 17/12 A2998 RMK A01 T01670123  RH  078%=      5-min Rain = 0
KAMH 250920Z 19005KT 17/12 A2998 RMK A01 T01680123  RH  078%=      5-min Rain = 0
KAMH 250925Z 20006KT 17/12 A2998 RMK A01 T01670123  RH  078%=      5-min Rain = 0
KAMH 250930Z 20006KT 17/12 A2998 RMK A01 T01700124  RH  077%=      5-min Rain = 0
KAMH 250935Z 20006KT 17/12 A2998 RMK A01 T01710124  RH  077%=      5-min Rain = 0
KAMH 250940Z 20006KT 17/13 A2998 RMK A01 T01710125  RH  077%=      5-min Rain = 0
KAMH 250945Z 20006KT 17/13 A2999 RMK A01 T01720126  RH  077%=      5-min Rain = 0
KAMH 250950Z 18006KT 17/13 A2999 RMK A01 T01720126  RH  077%=      5-min Rain = 0
KAMH 250955Z 19006KT 17/13 A30 RMK A01 T01670125  RH  079%=      5-min Rain = 0
KAMH 251000Z 19006KT 17/13 A30 RMK A01 T01660126  RH  080%=      5-min Rain = 0
KAMH 251005Z 19006KT 17/13 A2999 RMK A01 T01650125  RH  080%=      5-min Rain = 0
KAMH 251010Z 19006KT 16/13 A30 RMK A01 T01630125  RH  081%=      5-min Rain = 0
KAMH 251015Z 19006KT 16/13 A30 RMK A01 T01600125  RH  083%=      5-min Rain = 0
KAMH 251020Z 20007KT 16/13 A30 RMK A01 T01640126  RH  081%=      5-min Rain = 0
KAMH 251025Z 20008KT 17/13 A30 RMK A01 T01670126  RH  079%=      5-min Rain = 0
KAMH 251030Z 19009KT 17/13 A30 RMK A01 T01690126  RH  079%=      5-min Rain = 0
KAMH 251035Z 19008KT 17/13 A30 RMK A01 T01690126  RH  079%=      5-min Rain = 0
KAMH 251040Z 19008KT 17/13 A30 RMK A01 T01690126  RH  079%=      5-min Rain = 0
KAMH 251045Z 19008KT 17/13 A30 RMK A01 T01680126  RH  079%=      5-min Rain = 0
KAMH 251050Z 19008KT 17/13 A3001 RMK A01 T01690125  RH  078%=      5-min Rain = 0
KAMH 251055Z 19008KT 17/13 A3001 RMK A01 T01690125  RH  078%=      5-min Rain = 0
KAMH 251100Z 20007KT 17/13 A3001 RMK A01 T01680125  RH  078%=      5-min Rain = 0
KAMH 251105Z 20007KT 17/13 A3001 RMK A01 T01670125  RH  079%=      5-min Rain = 0
KAMH 251110Z 20006KT 17/12 A3001 RMK A01 T01650124  RH  080%=      5-min Rain = 0
KAMH 251115Z 20007KT 16/13 A3001 RMK A01 T01640125  RH  081%=      5-min Rain = 0
KAMH 251120Z 20007KT 16/13 A3002 RMK A01 T01640125  RH  081%=      5-min Rain = 0
KAMH 251125Z 20006KT 16/13 A3002 RMK A01 T01640125  RH  080%=      5-min Rain = 0
KAMH 251130Z 21005KT 16/13 A3002 RMK A01 T01630125  RH  081%=      5-min Rain = 0
KAMH 251135Z 22005KT 16/13 A3002 RMK A01 T01630125  RH  081%=      5-min Rain = 0
KAMH 251140Z 24005KT 16/12 A3002 RMK A01 T01630124  RH  081%=      5-min Rain = 0
KAMH 251145Z 27005KT 16/12 A3002 RMK A01 T01590124  RH  083%=      5-min Rain = 0
KAMH 251150Z 28005KT 16/12 A3003 RMK A01 T01550124  RH  085%=      5-min Rain = 0
KAMH 251155Z 27005KT 15/12 A3003 RMK A01 T01530124  RH  086%=      5-min Rain = 0
KAMH 251200Z 27004KT 15/13 A3003 RMK A01 T01540125  RH  086%=      5-min Rain = 0
KAMH 251205Z 25003KT 16/13 A3003 RMK A01 T01550125  RH  086%=      5-min Rain = 0
KAMH 251210Z 24002KT 16/13 A3003 RMK A01 T01570126  RH  085%=      5-min Rain = 0
KAMH 251215Z 24001KT 16/13 A3003 RMK A01 T01600126  RH  084%=      5-min Rain = 0
KAMH 251220Z 24000KT 16/13 A3003 RMK A01 T01620127  RH  083%=      5-min Rain = 0
KAMH 251225Z 31002KT 17/13 A3003 RMK A01 T01650128  RH  082%=      5-min Rain = 0
KAMH 251230Z 33003KT 17/13 A3003 RMK A01 T01660128  RH  081%=      5-min Rain = 0
KAMH 251235Z 32002KT 17/13 A3003 RMK A01 T01670128  RH  081%=      5-min Rain = 0
KAMH 251240Z 29002KT 17/13 A3004 RMK A01 T01690129  RH  080%=      5-min Rain = 0
KAMH 251245Z 28002KT 17/13 A3003 RMK A01 T01720129  RH  079%=      5-min Rain = 0
KAMH 251250Z 26002KT 17/13 A3003 RMK A01 T01740130  RH  078%=      5-min Rain = 0
KAMH 251255Z 27002KT 18/13 A3004 RMK A01 T01770130  RH  077%=      5-min Rain = 0
KAMH 251300Z 26002KT 18/13 A3004 RMK A01 T01800130  RH  076%=      5-min Rain = 0
KAMH 251305Z 26003KT 18/13 A3004 RMK A01 T01830130  RH  074%=      5-min Rain = 0
KAMH 251310Z 24003KT 19/13 A3004 RMK A01 T01850129  RH  073%=      5-min Rain = 0
KAMH 251315Z 25004KT 19/13 A3004 RMK A01 T01890131  RH  072%=      5-min Rain = 0
KAMH 251320Z 24005KT 19/13 A3004 RMK A01 T01940130  RH  069%=      5-min Rain = 0
KAMH 251325Z 24005KT 20/13 A3004 RMK A01 T01980131  RH  068%=      5-min Rain = 0
KAMH 251330Z 24005KT 20/13 A3004 RMK A01 T02000131  RH  067%=      5-min Rain = 0
KAMH 251335Z 22008KT 20/13 A3004 RMK A01 T02030130  RH  065%=      5-min Rain = 0
KAMH 251340Z 23006KT 21/13 A3005 RMK A01 T02050131  RH  065%=      5-min Rain = 0
KAMH 251345Z 22007KT 21/13 A3005 RMK A01 T02100132  RH  064%=      5-min Rain = 0
KAMH 251350Z 21006KT 21/13 A3005 RMK A01 T02120133  RH  063%=      5-min Rain = 0
KAMH 251355Z 22008KT 22/14 A3005 RMK A01 T02160136  RH  063%=      5-min Rain = 0
KAMH 251400Z 21008KT 22/14 A3005 RMK A01 T02170136  RH  063%=      5-min Rain = 0
KAMH 251405Z 22008KT 22/14 A3005 RMK A01 T02190139  RH  063%=      5-min Rain = 0
KAMH 251410Z 21009KT 22/14 A3005 RMK A01 T02200140  RH  063%=      5-min Rain = 0
KAMH 251415Z 22010KT 22/14 A3005 RMK A01 T02230142  RH  063%=      5-min Rain = 0
KAMH 251420Z 21011G16KT 23/15 A3005 RMK A01 T02250145  RH  063%=      5-min Rain = 0
KAMH 251425Z 20011G17KT 23/15 A3005 RMK A01 T02290147  RH  062%=      5-min Rain = 0
KAMH 251430Z 20011KT 23/15 A3005 RMK A01 T02280146  RH  063%=      5-min Rain = 0
KAMH 251435Z 20012KT 23/15 A3005 RMK A01 T02290147  RH  063%=      5-min Rain = 0
KAMH 251440Z 21011KT 23/15 A3005 RMK A01 T02320149  RH  062%=      5-min Rain = 0
KAMH 251445Z 19013G18KT 23/15 A3005 RMK A01 T02330148  RH  061%=      5-min Rain = 0
KAMH 251450Z 20012KT 24/15 A3005 RMK A01 T02350149  RH  061%=      5-min Rain = 0
KAMH 251455Z 20013KT 24/15 A3005 RMK A01 T02360148  RH  060%=      5-min Rain = 0
KAMH 251500Z 21012KT 24/15 A3005 RMK A01 T02370148  RH  060%=      5-min Rain = 0
KAMH 251505Z 20011G18KT 24/15 A3005 RMK A01 T02430151  RH  059%=      5-min Rain = 0
KAMH 251510Z 21014KT 24/15 A3004 RMK A01 T02440149  RH  058%=      5-min Rain = 0
KAMH 251515Z 20012KT 25/15 A3004 RMK A01 T02470150  RH  057%=      5-min Rain = 0
KAMH 251520Z 20013G18KT 25/15 A3004 RMK A01 T02490150  RH  057%=      5-min Rain = 0
KAMH 251525Z 19012G17KT 25/15 A3004 RMK A01 T02510150  RH  056%=      5-min Rain = 0
KAMH 251530Z 20012G17KT 25/15 A3004 RMK A01 T02530151  RH  056%=      5-min Rain = 0
KAMH 251535Z 20012KT 26/15 A3004 RMK A01 T02580151  RH  054%=      5-min Rain = 0
KAMH 251540Z 21011KT 26/15 A3004 RMK A01 T02610153  RH  054%=      5-min Rain = 0
KAMH 251545Z 20013KT 26/15 A3004 RMK A01 T02620149  RH  052%=      5-min Rain = 0
KAMH 251550Z 20012G17KT 27/15 A3004 RMK A01 T02650148  RH  051%=      5-min Rain = 0
KAMH 251555Z 20011G16KT 27/15 A3004 RMK A01 T02660150  RH  051%=      5-min Rain = 0
KAMH 251600Z 20012KT 27/15 A3003 RMK A01 T02680149  RH  050%=      5-min Rain = 0
KAMH 251605Z 20012KT 27/15 A3003 RMK A01 T02730148  RH  049%=      5-min Rain = 0
KAMH 251610Z 20010G15KT 28/15 A3004 RMK A01 T02750150  RH  049%=      5-min Rain = 0
KAMH 251615Z 21011KT 28/15 A3003 RMK A01 T02790147  RH  047%=      5-min Rain = 0
KAMH 251620Z 21011KT 28/15 A3003 RMK A01 T02800149  RH  047%=      5-min Rain = 0
KAMH 251625Z 20011KT 28/15 A3003 RMK A01 T02790146  RH  046%=      5-min Rain = 0
KAMH 251630Z 19011G17KT 28/15 A3004 RMK A01 T02830147  RH  045%=      5-min Rain = 0
KAMH 251635Z 21008G13KT 29/15 A3004 RMK A01 T02880148  RH  044%=      5-min Rain = 0
KAMH 251640Z 20011G16KT 29/14 A3004 RMK A01 T02880144  RH  043%=      5-min Rain = 0
KAMH 251645Z 20011KT 29/14 A3003 RMK A01 T02890144  RH  043%=      5-min Rain = 0
KAMH 251650Z 21010KT 29/14 A3003 RMK A01 T02930144  RH  042%=      5-min Rain = 0
KAMH 251655Z 21010KT 30/14 A3003 RMK A01 T02980143  RH  041%=      5-min Rain = 0
KAMH 251700Z 20008G13KT 30/15 A3003 RMK A01 T03000146  RH  041%=      5-min Rain = 0
KAMH 251705Z 18010KT 30/15 A3003 RMK A01 T03010147  RH  041%=      5-min Rain = 0
KAMH 251710Z 19009G14KT 30/14 A3003 RMK A01 T03020143  RH  040%=      5-min Rain = 0
KAMH 251715Z 19010KT 30/14 A3003 RMK A01 T03040142  RH  039%=      5-min Rain = 0
KAMH 251720Z 19011KT 31/14 A3003 RMK A01 T03060137  RH  037%=      5-min Rain = 0
KAMH 251725Z 20010KT 31/14 A3003 RMK A01 T03090135  RH  036%=      5-min Rain = 0
KAMH 251730Z 19010KT 31/13 A3003 RMK A01 T03120134  RH  035%=      5-min Rain = 0
KAMH 251735Z 19011G16KT 31/13 A3003 RMK A01 T03120128  RH  034%=      5-min Rain = 0
KAMH 251740Z 21010KT 32/13 A3002 RMK A01 T03170127  RH  033%=      5-min Rain = 0
KAMH 251745Z 20011KT 32/12 A3002 RMK A01 T03200122  RH  031%=      5-min Rain = 0
KAMH 251750Z 22012KT 32/12 A3002 RMK A01 T03230121  RH  030%=      5-min Rain = 0
KAMH 251755Z 20009KT 32/13 A3002 RMK A01 T03230127  RH  032%=      5-min Rain = 0
KAMH 251800Z 19010KT 32/12 A3002 RMK A01 T03240124  RH  031%=      5-min Rain = 0
KAMH 251805Z 19011G17KT 33/12 A3002 RMK A01 T03270124  RH  030%=      5-min Rain = 0
KAMH 251810Z 20011G18KT 33/12 A3002 RMK A01 T03290119  RH  029%=      5-min Rain = 0
KAMH 251815Z 19011G16KT 33/11 A3002 RMK A01 T03270112  RH  028%=      5-min Rain = 0
KAMH 251820Z 18011G17KT 33/11 A3002 RMK A01 T03290112  RH  028%=      5-min Rain = 0
KAMH 251825Z 19009G18KT 33/12 A3001 RMK A01 T03300115  RH  028%=      5-min Rain = 0
KAMH 251830Z 18012G18KT 34/09 A3001 RMK A01 T03350094  RH  024%=      5-min Rain = 0
KAMH 251835Z 18010G16KT 34/10 A3001 RMK A01 T03350095  RH  024%=      5-min Rain = 0
KAMH 251840Z 17012G18KT 34/10 A3001 RMK A01 T03380096  RH  023%=      5-min Rain = 0
KAMH 251845Z 19012KT 34/09 A3001 RMK A01 T03380085  RH  022%=      5-min Rain = 0
KAMH 251850Z 18012KT 34/08 A3001 RMK A01 T03370082  RH  021%=      5-min Rain = 0
KAMH 251855Z 20012KT 34/05 A3001 RMK A01 T03430050  RH  017%=      5-min Rain = 0
KAMH 251900Z 21009G15KT 34/06 A3001 RMK A01 T03440060  RH  018%=      5-min Rain = 0
KAMH 251905Z 19011G18KT 34/08 A30 RMK A01 T03410075  RH  020%=      5-min Rain = 0
KAMH 251910Z 21011KT 35/06 A30 RMK A01 T03450055  RH  017%=      5-min Rain = 0
KAMH 251915Z 18011G17KT 34/07 A30 RMK A01 T03440067  RH  018%=      5-min Rain = 0
KAMH 251920Z 17011KT 34/06 A30 RMK A01 T03430061  RH  018%=      5-min Rain = 0
KAMH 251925Z 19009G14KT 35/07 A30 RMK A01 T03450069  RH  019%=      5-min Rain = 0
KAMH 251930Z 21013G19KT 35/06 A30 RMK A01 T03460062  RH  018%=      5-min Rain = 0
KAMH 251935Z 21011G18KT 35/06 A30 RMK A01 T03480062  RH  018%=      5-min Rain = 0
KAMH 251940Z 19008G14KT 35/06 A30 RMK A01 T03470064  RH  018%=      5-min Rain = 0
KAMH 251945Z 17010G16KT 35/06 A2999 RMK A01 T03480063  RH  018%=      5-min Rain = 0
KAMH 251950Z 15012G19KT 34/05 A2999 RMK A01 T03410049  RH  017%=      5-min Rain = 0
KAMH 251955Z 16012G20KT 35/06 A2999 RMK A01 T03450056  RH  017%=      5-min Rain = 0
KAMH 252000Z 18011G17KT 35/05 A2999 RMK A01 T03490053  RH  016%=      5-min Rain = 0
KAMH 252005Z 17009G14KT 35/06 A2999 RMK A01 T03510059  RH  017%=      5-min Rain = 0
KAMH 252010Z 16010KT 35/07 A2998 RMK A01 T03520065  RH  018%=      5-min Rain = 0
KAMH 252015Z 20009KT 35/06 A2998 RMK A01 T03530055  RH  016%=      5-min Rain = 0
KAMH 252020Z 19008G20KT 36/05 A2998 RMK A01 T03550054  RH  016%=      5-min Rain = 0
KAMH 252025Z 18012G17KT 35/06 A2998 RMK A01 T03540060  RH  017%=      5-min Rain = 0
KAMH 252030Z 20008KT 35/06 A2998 RMK A01 T03530055  RH  016%=      5-min Rain = 0
KAMH 252035Z 19007G14KT 35/05 A2998 RMK A01 T03510054  RH  016%=      5-min Rain = 0
KAMH 252040Z 16012KT 35/06 A2998 RMK A01 T03470064  RH  018%=      5-min Rain = 0
KAMH 252045Z 16012G19KT 35/06 A2997 RMK A01 T03520061  RH  017%=      5-min Rain = 0
KAMH 252050Z 17013G18KT 35/06 A2997 RMK A01 T03530057  RH  016%=      5-min Rain = 0
KAMH 252055Z 17010KT 35/05 A2997 RMK A01 T03470054  RH  017%=      5-min Rain = 0
KAMH 252100Z 16012G18KT 35/05 A2997 RMK A01 T03490048  RH  016%=      5-min Rain = 0
KAMH 252105Z 16011G19KT 35/05 A2997 RMK A01 T03510051  RH  016%=      5-min Rain = 0
KAMH 252110Z 13010G18KT 35/05 A2997 RMK A01 T03530046  RH  015%=      5-min Rain = 0
KAMH 252115Z 17010G16KT 36/05 A2997 RMK A01 T03550051  RH  015%=      5-min Rain = 0
KAMH 252120Z 14009G16KT 35/04 A2997 RMK A01 T03540036  RH  014%=      5-min Rain = 0
KAMH 252125Z 16009KT 35/04 A2996 RMK A01 T03520043  RH  015%=      5-min Rain = 0
KAMH 252130Z 16012G18KT 35/06 A2996 RMK A01 T03500055  RH  016%=      5-min Rain = 0
KAMH 252135Z 15013G18KT 35/06 A2996 RMK A01 T03510059  RH  017%=      5-min Rain = 0
KAMH 252140Z 15011G18KT 35/05 A2996 RMK A01 T03510054  RH  016%=      5-min Rain = 0
KAMH 252145Z 18012G18KT 35/05 A2996 RMK A01 T03500053  RH  016%=      5-min Rain = 0
KAMH 252150Z 15013G18KT 35/05 A2995 RMK A01 T03520054  RH  016%=      5-min Rain = 0
KAMH 252155Z 15016KT 35/05 A2995 RMK A01 T03510054  RH  016%=      5-min Rain = 0
KAMH 252200Z 15010G15KT 35/06 A2995 RMK A01 T03520062  RH  017%=      5-min Rain = 0
KAMH 252205Z 16012G21KT 35/06 A2995 RMK A01 T03530057  RH  016%=      5-min Rain = 0
KAMH 252210Z 16012G19KT 35/06 A2995 RMK A01 T03510058  RH  017%=      5-min Rain = 0
KAMH 252215Z 16012G18KT 35/06 A2995 RMK A01 T03510056  RH  016%=      5-min Rain = 0
KAMH 252220Z 15012G17KT 35/07 A2994 RMK A01 T03510066  RH  018%=      5-min Rain = 0
KAMH 252225Z 15012KT 35/06 A2994 RMK A01 T03510064  RH  017%=      5-min Rain = 0
KAMH 252230Z 17015G20KT 35/05 A2994 RMK A01 T03500050  RH  016%=      5-min Rain = 0
KAMH 252235Z 18015G21KT 35/05 A2994 RMK A01 T03500047  RH  016%=      5-min Rain = 0
KAMH 252240Z 16014KT 35/06 A2994 RMK A01 T03480062  RH  017%=      5-min Rain = 0
KAMH 252245Z 17014KT 35/06 A2994 RMK A01 T03470055  RH  017%=      5-min Rain = 0
KAMH 252250Z 16012G18KT 35/06 A2994 RMK A01 T03470061  RH  017%=      5-min Rain = 0
KAMH 252255Z 16015G20KT 35/07 A2994 RMK A01 T03460065  RH  018%=      5-min Rain = 0
KAMH 252300Z 16015G21KT 35/07 A2994 RMK A01 T03450070  RH  019%=      5-min Rain = 0
KAMH 252305Z 16015G22KT 34/07 A2994 RMK A01 T03430067  RH  019%=      5-min Rain = 0
KAMH 252310Z 16015KT 34/07 A2994 RMK A01 T03410065  RH  018%=      5-min Rain = 0
KAMH 252315Z 15015G22KT 34/07 A2993 RMK A01 T03430066  RH  018%=      5-min Rain = 0
KAMH 252320Z 17016KT 34/06 A2993 RMK A01 T03430060  RH  018%=      5-min Rain = 0
KAMH 252325Z 16015G21KT 34/07 A2993 RMK A01 T03420073  RH  020%=      5-min Rain = 0
KAMH 252330Z 16015G22KT 34/08 A2993 RMK A01 T03390080  RH  021%=      5-min Rain = 0
KAMH 252335Z 15015G22KT 34/09 A2993 RMK A01 T03380090  RH  023%=      5-min Rain = 0
KAMH 252340Z 15017G24KT 34/10 A2992 RMK A01 T03360096  RH  024%=      5-min Rain = 0
KAMH 252345Z 15017G25KT 33/10 A2992 RMK A01 T03340097  RH  024%=      5-min Rain = 0
KAMH 252350Z 14020G27KT 33/10 A2992 RMK A01 T03310102  RH  025%=      5-min Rain = 0
KAMH 252355Z 15018G28KT 33/10 A2992 RMK A01 T03290104  RH  026%=      5-min Rain = 0
KAMH 260000Z 15019G27KT 33/10 A2992 RMK A01 T03280100  RH  025%=      5-min Rain = 0
KAMH 260005Z 16017G23KT 33/10 A2992 RMK A01 T03290101  RH  025%=      5-min Rain = 0
KAMH 260010Z 16016G22KT 33/10 A2992 RMK A01 T03280098  RH  025%=      5-min Rain = 0
KAMH 260015Z 16018G27KT 33/09 A2991 RMK A01 T03270094  RH  025%=      5-min Rain = 0
KAMH 260020Z 16020G26KT 33/09 A2992 RMK A01 T03260092  RH  024%=      5-min Rain = 0
KAMH 260025Z 16018G25KT 33/09 A2992 RMK A01 T03260088  RH  024%=      5-min Rain = 0
KAMH 260030Z 15016G22KT 33/09 A2992 RMK A01 T03270087  RH  023%=      5-min Rain = 0
KAMH 260035Z 16018G24KT 33/09 A2993 RMK A01 T03260087  RH  024%=      5-min Rain = 0
KAMH 260040Z 15017G23KT 32/09 A2993 RMK A01 T03240086  RH  024%=      5-min Rain = 0
KAMH 260045Z 15019G25KT 32/09 A2993 RMK A01 T03240085  RH  023%=      5-min Rain = 0
KAMH 260050Z 15018G24KT 32/09 A2993 RMK A01 T03230086  RH  024%=      5-min Rain = 0
KAMH 260055Z 15019KT 32/09 A2993 RMK A01 T03220086  RH  024%=      5-min Rain = 0
KAMH 260100Z 15015G22KT 32/10 A2994 RMK A01 T03200096  RH  026%=      5-min Rain = 0
KAMH 260105Z 15019G24KT 32/11 A2994 RMK A01 T03180106  RH  028%=      5-min Rain = 0
KAMH 260110Z 15016G25KT 32/12 A2994 RMK A01 T03160115  RH  030%=      5-min Rain = 0
KAMH 260115Z 13019G25KT 31/13 A2994 RMK A01 T03110134  RH  035%=      5-min Rain = 0
KAMH 260120Z 13019G25KT 30/14 A2995 RMK A01 T03040144  RH  040%=      5-min Rain = 0
KAMH 260125Z 13020G27KT 30/15 A2995 RMK A01 T03020145  RH  040%=      5-min Rain = 0
KAMH 260130Z 13020G28KT 30/15 A2995 RMK A01 T02990146  RH  041%=      5-min Rain = 0
KAMH 260135Z 13020G26KT 30/15 A2996 RMK A01 T02970148  RH  042%=      5-min Rain = 0
KAMH 260140Z 13020G27KT 29/15 A2996 RMK A01 T02940149  RH  043%=      5-min Rain = 0
KAMH 260145Z 13021G27KT 29/15 A2997 RMK A01 T02930149  RH  043%=      5-min Rain = 0
KAMH 260150Z 13020G26KT 29/15 A2997 RMK A01 T02910149  RH  044%=      5-min Rain = 0
KAMH 260155Z 12019G26KT 29/15 A2998 RMK A01 T02890150  RH  045%=      5-min Rain = 0
KAMH 260200Z 12020G25KT 29/15 A2998 RMK A01 T02870150  RH  045%=      5-min Rain = 0
KAMH 260205Z 12018KT 29/15 A2998 RMK A01 T02850150  RH  046%=      5-min Rain = 0
KAMH 260210Z 12021KT 28/15 A2999 RMK A01 T02830151  RH  047%=      5-min Rain = 0
KAMH 260215Z 11020KT 28/15 A30 RMK A01 T02810152  RH  047%=      5-min Rain = 0
KAMH 260220Z 11019G24KT 28/15 A30 RMK A01 T02780153  RH  049%=      5-min Rain = 0
KAMH 260225Z 10018G24KT 28/15 A3001 RMK A01 T02750153  RH  049%=      5-min Rain = 0
KAMH 260230Z 09020G30KT 27/15 A3001 RMK A01 T02680148  RH  050%=      5-min Rain = 0
KAMH 260235Z 08023G31KT 24/13 A3002 RMK A01 T02380132  RH  054%=      5-min Rain = 0
KAMH 260240Z 08019G25KT 23/13 A3003 RMK A01 T02330133  RH  056%=      5-min Rain = 0
KAMH 260245Z 08018G25KT 23/13 A3003 RMK A01 T02310133  RH  056%=      5-min Rain = 0
KAMH 260250Z 08023G29KT 23/13 A3004 RMK A01 T02300130  RH  055%=      5-min Rain = 0
KAMH 260255Z 08023G29KT 23/13 A3004 RMK A01 T02270127  RH  055%=      5-min Rain = 0
KAMH 260300Z 09025G34KT 23/13 A3005 RMK A01 T02270126  RH  055%=      5-min Rain = 0
KAMH 260305Z 09023G30KT 23/13 A3005 RMK A01 T02280127  RH  055%=      5-min Rain = 0
KAMH 260310Z 09024G31KT 23/13 A3005 RMK A01 T02310129  RH  055%=      5-min Rain = 0
KAMH 260315Z 09026G34KT 23/13 A3006 RMK A01 T02340130  RH  054%=      5-min Rain = 0
KAMH 260320Z 09025G35KT 23/13 A3006 RMK A01 T02340130  RH  054%=      5-min Rain = 0
KAMH 260325Z 09025G30KT 23/13 A3006 RMK A01 T02330130  RH  054%=      5-min Rain = 0
KAMH 260330Z 10022G28KT 23/13 A3007 RMK A01 T02330130  RH  054%=      5-min Rain = 0
KAMH 260335Z 10023G29KT 23/13 A3007 RMK A01 T02330130  RH  054%=      5-min Rain = 0
KAMH 260340Z 10024G30KT 23/13 A3007 RMK A01 T02340131  RH  054%=      5-min Rain = 0
KAMH 260345Z 10023G30KT 24/13 A3008 RMK A01 T02350132  RH  055%=      5-min Rain = 0
KAMH 260350Z 10023G30KT 24/13 A3008 RMK A01 T02350133  RH  055%=      5-min Rain = 0
KAMH 260355Z 10025G31KT 24/13 A3008 RMK A01 T02350133  RH  055%=      5-min Rain = 0
KAMH 260400Z 10025G32KT 24/13 A3009 RMK A01 T02350134  RH  055%=      5-min Rain = 0
KAMH 260405Z 10025G31KT 24/13 A3009 RMK A01 T02350134  RH  055%=      5-min Rain = 0
KAMH 260410Z 11022G31KT 24/13 A3009 RMK A01 T02350134  RH  055%=      5-min Rain = 0
KAMH 260415Z 11025G31KT 24/14 A3009 RMK A01 T02350135  RH  056%=      5-min Rain = 0
KAMH 260420Z 11022G28KT 23/14 A3009 RMK A01 T02340135  RH  056%=      5-min Rain = 0
KAMH 260425Z 11025G31KT 23/14 A301 RMK A01 T02330135  RH  056%=      5-min Rain = 0
KAMH 260430Z 11023G29KT 23/14 A3011 RMK A01 T02320136  RH  057%=      5-min Rain = 0
KAMH 260435Z 12021G28KT 23/14 A3011 RMK A01 T02310135  RH  057%=      5-min Rain = 0
KAMH 260440Z 11023G29KT 23/14 A3011 RMK A01 T02290135  RH  057%=      5-min Rain = 0
KAMH 260445Z 11023G31KT 23/14 A301 RMK A01 T02290135  RH  058%=      5-min Rain = 0
KAMH 260450Z 12023G30KT 23/14 A301 RMK A01 T02290135  RH  058%=      5-min Rain = 0
KAMH 260455Z 12021G26KT 23/14 A301 RMK A01 T02260135  RH  059%=      5-min Rain = 0

Page generated in 0.009 seconds.